Time;durP1;ratioP1;P1;durP2;ratioP2;P2;SDS_P1;SDS_P2;PMS_P1;PMS_P2;Temp;Humidity;BMP_temperature;BMP_pressure;BME280_temperature;BME280_humidity;BME280_pressure;Samples;Min_cycle;Max_cycle;Signal;HPM_P1;HPM_P2
2021/01/26 00:00:11;;;;;;;18.23;15.80;;;2.20;67.10;3.10;100094.00;;;;4906716;29;20468;-83
2021/01/26 00:02:39;;;;;;;17.40;15.60;;;2.20;67.50;217.30;157987.00;;;;4904712;29;20521;-83
2021/01/26 00:05:08;;;;;;;18.30;16.47;;;2.10;67.80;217.30;158009.00;;;;4903252;29;20436;-81
2021/01/26 00:07:36;;;;;;;18.50;16.70;;;2.10;68.10;217.30;157912.00;;;;4923699;29;20473;-82
2021/01/26 00:10:06;;;;;;;18.33;16.52;;;2.00;68.10;2.90;100112.00;;;;4912248;29;20440;-81
2021/01/26 00:12:35;;;;;;;18.20;16.30;;;2.00;69.00;2.90;100115.00;;;;4913596;29;20434;-83
2021/01/26 00:15:05;;;;;;;19.17;17.17;;;1.90;69.30;2.90;66891.00;;;;4932557;29;20424;-83
2021/01/26 00:17:34;;;;;;;18.08;15.63;;;1.80;69.90;2.80;100106.00;;;;4925459;29;20440;-82
2021/01/26 00:20:05;;;;;;;18.00;16.10;;;1.90;70.20;2.80;100127.00;;;;4927803;29;20442;-82
2021/01/26 00:22:33;;;;;;;17.77;15.88;;;1.80;70.40;2.80;100119.00;;;;4914266;29;20469;-81
2021/01/26 00:25:01;;;;;;;17.77;15.88;;;1.80;70.80;2.80;66866.00;;;;4928253;29;20520;-81
2021/01/26 00:27:28;;;;;;;18.42;15.60;;;1.80;70.40;2.70;100111.00;;;;4927031;29;20522;-82
2021/01/26 00:29:56;;;;;;;19.55;16.23;;;1.80;70.30;217.30;157876.00;;;;4926556;28;20428;-82
2021/01/26 00:32:23;;;;;;;16.90;15.10;;;1.80;70.80;217.30;157902.00;;;;4931213;28;20438;-82
2021/01/26 00:34:52;;;;;;;17.70;15.90;;;1.90;71.00;2.90;66903.00;;;;4925204;28;20431;-83
2021/01/26 00:37:20;;;;;;;17.52;15.73;;;1.80;71.00;3.00;100122.00;;;;4935794;28;20418;-84
2021/01/26 00:39:47;;;;;;;16.23;14.52;;;1.80;70.60;52.70;157941.00;;;;4937081;28;20496;-82
2021/01/26 00:42:14;;;;;;;17.35;15.45;;;1.80;70.60;3.10;100122.00;;;;4933033;28;20421;-84
2021/01/26 00:44:42;;;;;;;19.48;15.45;;;2.00;70.70;52.70;157967.00;;;;4924118;28;20433;-80
2021/01/26 00:47:10;;;;;;;18.02;16.10;;;1.90;70.30;3.00;66929.00;;;;4923214;29;20438;-82
2021/01/26 00:49:37;;;;;;;17.58;15.48;;;2.00;70.00;3.00;100106.00;;;;4941396;28;20427;-81
2021/01/26 00:52:06;;;;;;;16.60;14.73;;;2.00;69.80;3.00;100103.00;;;;4933998;28;20520;-82
2021/01/26 00:54:35;;;;;;;16.70;14.50;;;2.00;69.30;3.00;100084.00;;;;4914966;29;20451;-81
2021/01/26 00:57:04;;;;;;;15.27;13.68;;;1.90;70.00;3.10;100093.00;;;;4921670;29;20426;-81
2021/01/26 00:59:32;;;;;;;16.60;14.90;;;2.00;69.80;3.00;100106.00;;;;4924858;29;20474;-81
2021/01/26 01:02:04;;;;;;;19.00;15.10;;;2.00;69.90;3.00;100114.00;;;;4937620;29;20508;-81
2021/01/26 01:04:32;;;;;;;17.30;14.65;;;2.10;70.10;3.00;100103.00;;;;4935228;29;20528;-81
2021/01/26 01:06:59;;;;;;;17.95;15.00;;;2.00;69.90;52.70;157935.00;;;;4918508;29;20438;-81
2021/01/26 01:09:27;;;;;;;18.10;16.20;;;2.00;70.10;2.90;100108.00;;;;4936172;29;20437;-81
2021/01/26 01:11:55;;;;;;;18.35;14.90;;;2.00;70.70;2.90;100106.00;;;;4916148;29;20420;-81
2021/01/26 01:14:23;;;;;;;17.55;15.75;;;2.00;70.70;217.30;157876.00;;;;4915719;29;20440;-82
2021/01/26 01:16:50;;;;;;;18.02;15.15;;;2.00;70.70;2.90;100110.00;;;;4915667;29;20497;-81
2021/01/26 01:19:18;;;;;;;17.63;15.38;;;2.00;71.10;2.80;66875.00;;;;4911767;29;20439;-82
2021/01/26 01:21:45;;;;;;;21.48;16.40;;;1.90;71.40;2.80;100086.00;;;;4911249;29;20445;-81
2021/01/26 01:24:12;;;;;;;18.60;15.70;;;1.90;72.00;2.80;100099.00;;;;4924801;29;20473;-81
2021/01/26 01:26:41;;;;;;;17.52;15.05;;;1.90;72.00;2.80;100093.00;;;;4912503;29;20450;-81
2021/01/26 01:29:10;;;;;;;17.63;15.10;;;1.90;71.60;2.80;100106.00;;;;4910656;29;20444;-81
2021/01/26 01:31:38;;;;;;;19.00;15.85;;;1.90;72.00;2.90;100101.00;;;;4917316;29;20429;-82
2021/01/26 01:34:06;;;;;;;17.77;15.20;;;2.00;72.10;2.80;100107.00;;;;4913666;29;20442;-80
2021/01/26 01:36:34;;;;;;;19.95;15.63;;;2.00;71.60;2.90;100101.00;;;;4909704;29;20434;-80
2021/01/26 01:39:01;;;;;;;20.92;15.85;;;2.00;71.80;52.70;157870.00;;;;4916519;29;20502;-81
2021/01/26 01:41:33;;;;;;;18.47;15.80;;;2.00;71.90;2.80;100111.00;;;;4919764;29;20482;-81
2021/01/26 01:44:01;;;;;;;18.73;16.35;;;1.90;72.30;217.30;157825.00;;;;4944553;28;20427;-81
2021/01/26 01:46:32;;;;;;;19.90;16.90;;;1.90;72.30;2.70;100096.00;;;;4926895;29;20458;-83
2021/01/26 01:49:03;;;;;;;18.70;16.55;;;1.90;72.30;2.70;100103.00;;;;4935933;29;20441;-82
2021/01/26 01:51:35;;;;;;;18.47;15.60;;;2.00;72.70;2.70;100104.00;;;;4918938;29;20470;-80
2021/01/26 01:54:09;;;;;;;18.92;16.17;;;2.00;72.80;2.70;100093.00;;;;4907403;29;20435;-82
2021/01/26 01:56:42;;;;;;;18.70;16.23;;;1.90;73.30;2.70;100098.00;;;;4940532;29;20449;-82
2021/01/26 01:59:15;;;;;;;21.10;18.13;;;1.80;73.60;2.60;100112.00;;;;4924441;29;20428;-82
2021/01/26 02:01:43;;;;;;;22.48;18.23;;;1.80;73.90;217.30;157695.00;;;;4938799;29;20453;-82
2021/01/26 02:04:17;;;;;;;20.75;17.80;;;1.80;74.30;52.70;157737.00;;;;4924731;29;20506;-82
2021/01/26 02:06:51;;;;;;;19.42;17.33;;;1.80;74.50;2.60;100119.00;;;;4925224;29;20504;-83
2021/01/26 02:09:25;;;;;;;21.52;18.50;;;1.80;74.00;2.60;100115.00;;;;4925872;29;20479;-82
2021/01/26 02:11:53;;;;;;;21.20;17.63;;;1.80;73.90;217.30;157799.00;;;;4930449;29;20424;-82
2021/01/26 02:14:22;;;;;;;20.95;17.65;;;1.80;74.00;2.70;66845.00;;;;4927169;29;20504;-82
2021/01/26 02:17:01;;;;;;;20.35;17.52;;;1.90;74.20;2.70;100109.00;;;;4916814;29;20423;-82
2021/01/26 02:20:20;;;;;;;20.40;16.60;;;1.80;73.40;2.70;100098.00;;;;4917605;29;20469;-82
2021/01/26 02:23:16;;;;;;;20.07;17.60;;;1.90;73.10;2.80;100108.00;;;;4914083;29;20445;-81
2021/01/26 02:26:42;;;;;;;19.38;17.25;;;1.90;73.40;2.80;100100.00;;;;4911694;29;20454;-82
2021/01/26 02:29:14;;;;;;;20.33;17.10;;;1.90;73.30;2.80;100101.00;;;;4881983;29;20861;-80
2021/01/26 02:32:04;;;;;;;20.27;16.90;;;1.90;73.40;2.90;100105.00;;;;4912274;29;20453;-82
2021/01/26 02:35:18;;;;;;;21.55;17.05;;;1.90;73.20;2.90;100114.00;;;;4919251;29;20460;-80
2021/01/26 02:38:35;;;;;;;19.07;16.63;;;2.00;72.60;3.00;100121.00;;;;4917826;29;20433;-82
2021/01/26 02:41:11;;;;;;;18.88;15.77;;;2.00;72.70;3.00;100125.00;;;;4910718;29;20429;-81
2021/01/26 02:44:03;;;;;;;20.00;16.10;;;2.00;72.70;3.00;100111.00;;;;4924017;29;20500;-82
2021/01/26 02:46:44;;;;;;;20.40;16.25;;;2.00;72.10;3.00;100121.00;;;;4926392;29;20472;-81
2021/01/26 02:49:26;;;;;;;18.60;15.60;;;2.00;72.10;52.70;157977.00;;;;4925419;29;20576;-81
2021/01/26 02:52:05;;;;;;;18.13;16.10;;;2.00;72.60;3.00;100115.00;;;;4918957;29;20437;-81
2021/01/26 02:54:41;;;;;;;18.17;15.93;;;2.10;72.40;217.30;157951.00;;;;4912354;29;21722;-82
2021/01/26 02:57:15;;;;;;;20.13;16.00;;;2.00;72.50;3.00;100122.00;;;;4902174;29;20481;-81
2021/01/26 02:59:51;;;;;;;20.02;16.27;;;2.00;73.30;3.00;100115.00;;;;4910928;29;20445;-82
2021/01/26 03:02:25;;;;;;;20.65;15.80;;;2.00;72.10;2.90;100115.00;;;;4910887;29;20506;-82
2021/01/26 03:05:01;;;;;;;18.17;15.65;;;2.00;72.50;2.90;66903.00;;;;4903765;29;20437;-80
2021/01/26 03:07:33;;;;;;;20.73;16.05;;;2.00;73.00;3.00;100124.00;;;;4913946;29;20448;-81
2021/01/26 03:10:05;;;;;;;21.08;17.40;;;2.00;73.60;2.90;100114.00;;;;4910644;29;20619;-79
2021/01/26 03:12:38;;;;;;;20.03;17.27;;;2.00;72.80;3.00;100119.00;;;;4908186;29;20424;-80
2021/01/26 03:15:12;;;;;;;19.27;16.05;;;2.00;73.50;3.00;100122.00;;;;4923916;29;20435;-80
2021/01/26 03:17:44;;;;;;;22.17;17.40;;;2.00;73.00;3.00;100119.00;;;;4909029;29;20490;-81
2021/01/26 03:20:21;;;;;;;19.73;17.33;;;2.00;72.80;3.00;100122.00;;;;4925158;29;20932;-82
2021/01/26 03:22:52;;;;;;;20.08;15.73;;;2.00;72.80;3.00;100126.00;;;;4914483;29;20439;-81
2021/01/26 03:25:24;;;;;;;22.27;16.10;;;2.00;73.40;3.10;100132.00;;;;4916793;29;20438;-81
2021/01/26 03:27:56;;;;;;;19.15;15.90;;;2.00;73.80;3.20;100132.00;;;;4914398;29;20459;-82
2021/01/26 03:30:29;;;;;;;19.92;16.25;;;2.10;73.40;3.30;100125.00;;;;4917716;29;20664;-82
2021/01/26 03:33:11;;;;;;;18.20;15.73;;;2.10;73.10;3.30;100131.00;;;;4916088;29;20429;-81
2021/01/26 03:35:39;;;;;;;18.70;15.73;;;2.20;72.80;3.50;100127.00;;;;4912060;29;20488;-81
2021/01/26 03:38:14;;;;;;;18.65;15.85;;;2.20;72.30;3.60;100133.00;;;;4916545;29;20506;-81
2021/01/26 03:40:41;;;;;;;19.17;15.80;;;2.30;72.40;52.70;158225.00;;;;4924812;29;20451;-81
2021/01/26 03:43:09;;;;;;;20.77;15.75;;;2.30;71.90;3.50;100119.00;;;;4906447;29;20804;-80
2021/01/26 03:45:37;;;;;;;18.95;15.75;;;2.40;70.90;217.30;158118.00;;;;4914195;29;20529;-80
2021/01/26 03:48:34;;;;;;;18.23;15.13;;;2.50;71.20;3.30;100137.00;;;;4910315;29;20433;-80
2021/01/26 03:51:09;;;;;;;18.45;14.43;;;2.30;71.50;3.40;100128.00;;;;4923332;29;20442;-80
2021/01/26 03:53:54;;;;;;;18.58;14.95;;;2.30;72.30;3.40;100143.00;;;;4911328;29;20505;-80
2021/01/26 03:56:36;;;;;;;18.42;14.90;;;2.30;71.80;3.40;100130.00;;;;4906404;29;20530;-81
2021/01/26 03:59:21;;;;;;;19.15;15.32;;;2.40;71.80;3.30;100140.00;;;;4905087;29;20437;-80
2021/01/26 04:01:59;;;;;;;20.83;16.10;;;2.30;71.90;3.30;100127.00;;;;4907692;29;20469;-81
2021/01/26 04:04:36;;;;;;;18.75;14.65;;;2.30;72.40;217.30;158060.00;;;;4925961;29;20429;-80
2021/01/26 04:07:14;;;;;;;19.23;14.82;;;2.30;72.80;3.30;100151.00;;;;4909415;29;20505;-82
2021/01/26 04:09:53;;;;;;;18.23;14.52;;;2.30;73.40;3.30;100138.00;;;;4894777;29;20523;-79
2021/01/26 04:12:25;;;;;;;18.70;14.40;;;2.30;74.00;3.20;100148.00;;;;4902506;29;20458;-79
2021/01/26 04:15:00;;;;;;;19.40;14.77;;;2.30;74.80;3.20;100147.00;;;;4921472;29;20435;-80
2021/01/26 04:17:32;;;;;;;18.98;14.30;;;2.30;75.50;3.20;100147.00;;;;4908006;29;20508;-80
2021/01/26 04:20:08;;;;;;;18.73;14.85;;;2.30;75.30;3.20;100145.00;;;;4905582;29;20435;-81
2021/01/26 04:22:36;;;;;;;19.42;14.90;;;2.20;75.80;3.10;100153.00;;;;4908665;29;20480;-80
2021/01/26 04:25:26;;;;;;;17.25;14.43;;;2.30;75.50;217.30;157993.00;;;;4924262;29;20439;-80
2021/01/26 04:27:54;;;;;;;17.75;13.65;;;2.30;75.50;3.20;66960.00;;;;4923409;29;20429;-79
2021/01/26 04:30:24;;;;;;;17.30;13.48;;;2.30;75.40;3.20;100147.00;;;;4918809;29;20460;-80
2021/01/26 04:33:04;;;;;;;20.33;15.10;;;2.30;75.40;3.20;100147.00;;;;4918183;29;20444;-81
2021/01/26 04:35:31;;;;;;;19.85;14.90;;;2.40;75.80;3.00;100134.00;;;;4918182;29;20432;-81
2021/01/26 04:38:00;;;;;;;21.63;14.60;;;2.20;76.40;217.30;157918.00;;;;4918218;29;20495;-82
2021/01/26 04:40:28;;;;;;;18.75;14.82;;;2.10;77.00;3.00;100140.00;;;;4902004;29;20488;-81
2021/01/26 04:43:06;;;;;;;18.40;14.05;;;2.10;77.30;3.00;100135.00;;;;4902081;29;20431;-82
2021/01/26 04:45:49;;;;;;;19.48;14.20;;;2.20;77.00;217.30;157902.00;;;;4917730;29;20506;-82
2021/01/26 04:48:24;;;;;;;18.33;14.70;;;2.20;76.80;2.80;100123.00;;;;4916993;29;20466;-81
2021/01/26 04:50:56;;;;;;;18.77;14.60;;;2.30;76.70;2.80;100126.00;;;;4910982;29;20431;-82
2021/01/26 04:53:52;;;;;;;18.20;13.00;;;2.20;76.80;2.90;100155.00;;;;4910654;29;20470;-82
2021/01/26 04:56:31;;;;;;;19.58;14.52;;;2.20;77.00;52.70;157902.00;;;;4914803;29;20433;-81
2021/01/26 04:59:20;;;;;;;18.27;14.03;;;2.20;76.60;3.00;100142.00;;;;4917108;29;20440;-82
2021/01/26 05:02:13;;;;;;;17.25;13.82;;;2.20;76.30;3.00;100141.00;;;;4914824;29;20431;-82
2021/01/26 05:04:45;;;;;;;18.48;13.50;;;2.30;76.20;3.10;100123.00;;;;4910122;29;20892;-82
2021/01/26 05:07:18;;;;;;;16.85;13.05;;;2.30;76.40;3.10;66939.00;;;;4899274;29;20435;-80
2021/01/26 05:10:01;;;;;;;20.35;14.13;;;2.50;75.80;3.10;100149.00;;;;4918573;29;20468;-80
2021/01/26 05:12:35;;;;;;;17.13;13.35;;;2.40;75.50;3.10;100150.00;;;;4902246;29;22421;-80
2021/01/26 05:15:07;;;;;;;15.65;12.85;;;2.40;75.50;3.00;100117.00;;;;4904660;29;20502;-81
2021/01/26 05:17:42;;;;;;;16.65;12.50;;;2.40;75.40;3.10;100130.00;;;;4903654;29;20510;-81
2021/01/26 05:20:16;;;;;;;15.52;13.10;;;2.40;75.50;3.20;100151.00;;;;4902803;29;20477;-79
2021/01/26 05:22:51;;;;;;;16.05;13.20;;;2.40;75.10;3.20;100146.00;;;;4916168;29;20800;-81
2021/01/26 05:25:21;;;;;;;17.13;12.70;;;2.60;75.10;217.30;158060.00;;;;4914760;29;20463;-81
2021/01/26 05:27:50;;;;;;;16.63;13.20;;;2.50;75.20;3.30;100149.00;;;;4905285;29;20437;-80
2021/01/26 05:30:26;;;;;;;19.67;13.50;;;2.60;75.30;3.30;100160.00;;;;4919923;29;20508;-80
2021/01/26 05:32:56;;;;;;;17.57;13.00;;;2.50;75.20;3.20;100149.00;;;;4908078;29;20448;-80
2021/01/26 05:35:25;;;;;;;18.98;14.05;;;2.40;76.80;3.20;100175.00;;;;4922893;29;20468;-81
2021/01/26 05:37:55;;;;;;;17.95;13.50;;;2.40;77.90;52.70;158023.00;;;;4923279;29;20511;-80
2021/01/26 05:40:26;;;;;;;18.42;13.40;;;2.40;78.10;3.20;100170.00;;;;4918369;29;20425;-80
2021/01/26 05:42:56;;;;;;;17.70;12.55;;;2.50;77.90;3.20;66971.00;;;;4918352;29;20466;-79
2021/01/26 05:45:31;;;;;;;16.88;12.93;;;2.50;77.30;217.30;158019.00;;;;4927678;29;20438;-81
2021/01/26 05:48:11;;;;;;;15.93;12.60;;;2.50;77.20;3.30;100158.00;;;;4911159;29;20496;-82
2021/01/26 05:50:44;;;;;;;15.43;11.40;;;2.50;77.00;3.30;100155.00;;;;4923389;29;20421;-83
2021/01/26 05:53:15;;;;;;;15.50;11.70;;;2.50;76.70;3.20;100154.00;;;;4937001;28;20425;-82
2021/01/26 05:55:57;;;;;;;16.65;12.77;;;2.50;76.40;217.30;158051.00;;;;4942090;28;20429;-82
2021/01/26 05:58:32;;;;;;;16.50;11.47;;;2.90;76.70;3.40;66990.00;;;;4921796;29;20429;-83
2021/01/26 06:01:02;;;;;;;16.85;12.15;;;2.60;76.50;3.40;100167.00;;;;4919457;29;20446;-83
2021/01/26 06:03:31;;;;;;;14.83;11.27;;;2.60;76.50;3.50;100173.00;;;;4938803;28;20440;-82
2021/01/26 06:06:04;;;;;;;14.68;12.07;;;2.80;76.40;3.40;100159.00;;;;4938717;29;20479;-82
2021/01/26 06:08:34;;;;;;;14.20;11.23;;;2.70;76.00;3.50;100177.00;;;;4939040;29;20440;-82
2021/01/26 06:11:17;;;;;;;16.00;12.38;;;2.70;76.10;3.50;100174.00;;;;4926617;29;20489;-82
2021/01/26 06:13:45;;;;;;;16.77;11.75;;;2.80;76.10;3.50;100197.00;;;;4931287;29;20472;-82
2021/01/26 06:16:15;;;;;;;14.02;10.43;;;2.80;75.70;3.60;100202.00;;;;4930754;29;20865;-83
2021/01/26 06:18:59;;;;;;;14.30;11.13;;;2.80;75.10;3.60;100187.00;;;;4927062;29;20599;-83
2021/01/26 06:21:29;;;;;;;14.07;12.17;;;2.80;75.20;3.50;100180.00;;;;4913385;29;20891;-82
2021/01/26 06:24:00;;;;;;;16.30;12.15;;;2.80;76.20;3.50;100176.00;;;;4917780;29;20437;-81
2021/01/26 06:26:35;;;;;;;14.32;11.27;;;2.70;77.30;3.50;100184.00;;;;4907684;29;20440;-83
2021/01/26 06:29:16;;;;;;;13.38;10.93;;;2.70;78.00;3.60;100203.00;;;;4906982;29;20481;-82
2021/01/26 06:32:07;;;;;;;13.18;10.90;;;2.80;78.10;3.60;100175.00;;;;4935425;29;20438;-83
2021/01/26 06:34:57;;;;;;;15.38;11.00;;;2.80;77.70;3.70;100218.00;;;;4923977;29;20513;-83
2021/01/26 06:37:49;;;;;;;15.35;10.18;;;2.80;77.00;217.30;158251.00;;;;4939237;29;20472;-82
2021/01/26 06:40:40;;;;;;;11.48;9.80;;;2.90;76.70;3.60;100204.00;;;;4924191;29;20469;-83
2021/01/26 06:43:26;;;;;;;13.20;10.15;;;2.80;76.70;3.60;100194.00;;;;4938427;29;20429;-84
2021/01/26 06:46:16;;;;;;;13.02;10.07;;;2.90;77.40;217.30;158237.00;;;;4915958;29;20731;-82
2021/01/26 06:49:01;;;;;;;13.18;9.30;;;2.90;77.50;3.60;100213.00;;;;4906052;29;20482;-82
2021/01/26 06:52:08;;;;;;;13.40;9.27;;;3.00;76.70;3.70;67071.00;;;;4927810;29;20490;-81
2021/01/26 06:55:08;;;;;;;12.27;9.30;;;3.00;76.60;3.70;100212.00;;;;4911892;29;20439;-82
2021/01/26 06:58:17;;;;;;;13.07;9.35;;;2.90;76.60;3.60;100219.00;;;;4911918;29;20438;-81
2021/01/26 07:01:12;;;;;;;11.18;8.70;;;2.90;77.30;3.70;100221.00;;;;4909931;29;20555;-81
2021/01/26 07:04:27;;;;;;;13.80;9.00;;;3.00;77.20;3.70;100233.00;;;;4919954;29;20470;-82
2021/01/26 07:07:47;;;;;;;13.68;8.23;;;3.00;77.10;3.70;100232.00;;;;4918845;29;20483;-82
2021/01/26 07:10:31;;;;;;;11.40;8.40;;;3.00;77.40;3.70;100235.00;;;;4920284;29;20430;-83
2021/01/26 07:13:16;;;;;;;11.98;8.70;;;3.00;77.40;3.70;100239.00;;;;4918425;29;20466;-82
2021/01/26 07:16:30;;;;;;;16.55;8.82;;;3.00;77.90;3.80;100264.00;;;;4917743;29;21014;-82
2021/01/26 07:19:33;;;;;;;14.93;8.27;;;3.00;78.30;3.90;100265.00;;;;4896409;29;20491;-81
2021/01/26 07:22:32;;;;;;;12.90;8.27;;;3.00;78.00;3.80;100263.00;;;;4923413;29;20438;-82
2021/01/26 07:25:17;;;;;;;12.50;8.85;;;3.00;78.40;3.80;100237.00;;;;4922415;29;20479;-81
2021/01/26 07:28:15;;;;;;;11.50;7.97;;;3.10;78.20;3.90;100255.00;;;;4922261;29;20442;-83
2021/01/26 07:30:49;;;;;;;9.88;7.60;;;3.10;78.00;3.90;100260.00;;;;4906484;29;20561;-81
2021/01/26 07:33:25;;;;;;;12.35;7.90;;;3.20;77.20;4.00;100259.00;;;;4923202;29;20522;-81
2021/01/26 07:36:03;;;;;;;13.15;7.90;;;3.30;77.10;4.00;100261.00;;;;4921162;29;20444;-81
2021/01/26 07:38:37;;;;;;;11.27;7.88;;;3.30;76.70;4.10;100254.00;;;;4910461;29;20491;-82
2021/01/26 07:41:11;;;;;;;11.60;7.10;;;3.30;76.70;4.10;100262.00;;;;4926329;29;20446;-83
2021/01/26 07:43:53;;;;;;;10.05;7.25;;;3.30;75.90;217.30;158382.00;;;;4919636;28;20467;-82
2021/01/26 07:46:28;;;;;;;9.10;7.10;;;3.40;76.20;4.10;100279.00;;;;4935505;28;20449;-85
2021/01/26 07:49:02;;;;;;;10.63;7.07;;;3.40;76.20;4.20;67179.00;;;;4926376;29;21100;-84
2021/01/26 07:51:36;;;;;;;11.55;7.18;;;3.40;76.20;4.20;100287.00;;;;4922764;29;20959;-81
2021/01/26 07:54:12;;;;;;;9.23;6.60;;;3.40;76.30;4.20;100294.00;;;;4904010;29;20477;-80
2021/01/26 07:56:41;;;;;;;11.68;7.30;;;3.50;76.30;4.20;100289.00;;;;4935310;29;20475;-83
2021/01/26 07:59:15;;;;;;;11.35;6.70;;;3.50;76.50;4.30;100287.00;;;;4924806;29;20459;-82
2021/01/26 08:01:47;;;;;;;9.35;6.55;;;3.50;76.60;52.70;158546.00;;;;4935283;28;20426;-83
2021/01/26 08:04:16;;;;;;;8.23;6.57;;;3.60;75.60;4.30;100290.00;;;;4943257;28;20446;-83
2021/01/26 08:06:56;;;;;;;9.68;5.93;;;3.60;74.90;4.20;100287.00;;;;4941461;28;20422;-84
2021/01/26 08:09:35;;;;;;;9.95;6.60;;;3.60;74.70;4.30;100309.00;;;;4935107;29;20945;-83
2021/01/26 08:12:07;;;;;;;9.38;6.43;;;3.60;75.60;4.40;100288.00;;;;4918045;29;20434;-82
2021/01/26 08:14:40;;;;;;;7.28;5.80;;;3.60;75.50;4.40;100061.00;;;;4919046;29;20473;-83
2021/01/26 08:17:12;;;;;;;10.68;6.43;;;3.70;75.00;4.40;100299.00;;;;4932845;29;20437;-83
2021/01/26 08:19:47;;;;;;;8.13;6.18;;;3.70;74.00;4.40;100307.00;;;;4922953;29;20430;-84
2021/01/26 08:22:33;;;;;;;9.30;6.37;;;3.70;74.00;4.40;100303.00;;;;4906777;29;20425;-84
2021/01/26 08:25:07;;;;;;;10.00;6.03;;;3.70;74.30;4.40;100330.00;;;;4934147;29;20446;-81
2021/01/26 08:28:02;;;;;;;9.23;5.53;;;3.70;74.30;4.50;100317.00;;;;4923516;29;20444;-82
2021/01/26 08:31:03;;;;;;;8.63;6.13;;;3.80;74.30;4.50;100311.00;;;;4916381;29;20492;-83
2021/01/26 08:33:33;;;;;;;9.95;6.25;;;3.80;74.00;4.50;100322.00;;;;4915512;29;20556;-83
2021/01/26 08:36:32;;;;;;;8.50;6.07;;;3.80;74.30;4.50;100321.00;;;;4913828;29;20476;-85
2021/01/26 08:39:06;;;;;;;8.38;5.70;;;3.80;73.60;4.60;100323.00;;;;4929276;29;20464;-83
2021/01/26 08:41:47;;;;;;;8.82;5.60;;;3.90;73.20;4.60;100319.00;;;;4917515;29;20456;-84
2021/01/26 08:47:49;;;;;;;8.75;5.72;;;3.90;73.10;52.70;158655.00;;;;5102758;27;20460;-83
2021/01/26 08:50:31;;;;;;;9.43;5.38;;;3.80;74.60;4.70;100331.00;;;;5063088;28;20438;-82
2021/01/26 08:53:16;;;;;;;9.25;5.40;;;3.90;74.30;4.80;100338.00;;;;5064097;28;20519;-84
2021/01/26 08:55:46;;;;;;;7.90;4.90;;;4.00;73.80;4.90;100366.00;;;;5070909;28;20434;-84
2021/01/26 08:58:39;;;;;;;6.97;5.30;;;4.00;73.00;4.90;100356.00;;;;5070599;28;20459;-83
2021/01/26 09:01:10;;;;;;;6.80;4.90;;;4.00;72.80;4.90;100356.00;;;;5069855;28;20482;-83
2021/01/26 09:03:42;;;;;;;9.10;5.07;;;4.00;73.20;4.80;100349.00;;;;5065465;28;20498;-82
2021/01/26 09:06:13;;;;;;;8.80;5.10;;;4.00;72.50;217.30;158758.00;;;;5064928;28;20621;-83
2021/01/26 09:08:57;;;;;;;8.60;5.30;;;4.10;72.10;5.00;100350.00;;;;5056913;28;20612;-83
2021/01/26 09:11:47;;;;;;;8.20;5.13;;;4.10;71.20;4.90;100334.00;;;;5063915;28;20476;-82
2021/01/26 09:14:33;;;;;;;8.63;4.53;;;4.20;70.60;4.90;100351.00;;;;5078119;28;20456;-83
2021/01/26 09:17:05;;;;;;;6.95;4.80;;;4.20;70.50;4.90;100352.00;;;;5064088;28;20414;-84
2021/01/26 09:19:41;;;;;;;10.33;4.97;;;4.20;70.60;5.10;100349.00;;;;5062905;28;20478;-85
2021/01/26 09:22:13;;;;;;;7.80;4.90;;;4.20;70.60;5.20;100358.00;;;;5067846;28;20458;-84
2021/01/26 09:24:41;;;;;;;8.15;4.60;;;4.30;70.40;5.30;100357.00;;;;5062737;28;20528;-82
2021/01/26 09:27:22;;;;;;;6.60;4.40;;;4.40;69.30;217.30;158982.00;;;;5058715;28;21323;-82
2021/01/26 09:30:11;;;;;;;7.55;4.20;;;4.60;68.00;5.50;100389.00;;;;5054733;28;20433;-82
2021/01/26 09:32:41;;;;;;;5.65;4.35;;;4.60;67.60;217.30;159020.00;;;;5052410;28;20430;-82
2021/01/26 09:35:27;;;;;;;8.85;5.00;;;4.60;67.40;5.40;100383.00;;;;5068736;28;20432;-82
2021/01/26 09:38:11;;;;;;;8.30;4.80;;;4.60;68.10;5.60;100383.00;;;;5047070;28;20477;-81
2021/01/26 09:40:42;;;;;;;7.32;4.80;;;4.70;67.70;5.60;100368.00;;;;5046366;28;20444;-81
2021/01/26 09:43:22;;;;;;;11.82;4.65;;;4.70;67.40;5.60;100388.00;;;;5061147;28;20479;-81
2021/01/26 09:45:57;;;;;;;6.97;4.45;;;4.70;66.70;217.30;159044.00;;;;5043600;28;20433;-80
2021/01/26 09:48:36;;;;;;;5.77;3.90;;;4.70;67.00;5.60;100392.00;;;;5036894;28;20562;-80
2021/01/26 09:51:12;;;;;;;9.25;4.10;;;4.80;66.20;5.60;100384.00;;;;5045790;28;20820;-80
2021/01/26 09:53:41;;;;;;;8.05;4.40;;;4.80;65.80;5.70;100388.00;;;;5035293;28;20458;-80
2021/01/26 09:56:13;;;;;;;5.57;4.10;;;4.80;65.50;5.60;100397.00;;;;5044237;28;20460;-81
2021/01/26 09:58:40;;;;;;;4.88;3.53;;;4.90;64.90;5.60;100391.00;;;;5049483;28;20485;-80
2021/01/26 10:01:08;;;;;;;6.63;3.90;;;4.80;64.30;5.50;100409.00;;;;5031561;28;20419;-81
2021/01/26 10:03:37;;;;;;;7.93;4.20;;;4.80;65.20;5.70;100409.00;;;;5049660;28;20433;-81
2021/01/26 10:06:05;;;;;;;6.37;3.83;;;4.80;65.50;5.70;100406.00;;;;5034358;28;20463;-80
2021/01/26 10:08:35;;;;;;;5.90;4.00;;;4.80;64.80;5.70;100404.00;;;;5025068;28;20459;-81
2021/01/26 10:11:12;;;;;;;7.43;4.03;;;4.90;64.90;5.70;67502.00;;;;5033115;28;20489;-81
2021/01/26 10:13:41;;;;;;;7.60;4.30;;;4.90;64.50;5.60;100421.00;;;;5030937;28;20562;-81
2021/01/26 10:16:31;;;;;;;7.55;4.15;;;4.80;65.20;5.70;100426.00;;;;5031726;28;20462;-81
2021/01/26 10:19:10;;;;;;;5.38;3.67;;;4.80;66.60;5.70;100433.00;;;;5032283;28;20837;-81
2021/01/26 10:21:37;;;;;;;6.93;4.95;;;4.80;66.40;5.90;100438.00;;;;5031337;28;20426;-81
2021/01/26 10:24:14;;;;;;;6.65;4.32;;;4.90;66.20;6.00;100441.00;;;;5029605;28;20430;-82
2021/01/26 10:26:42;;;;;;;6.22;4.30;;;4.90;67.20;6.00;100449.00;;;;5034270;28;20981;-81
2021/01/26 10:29:35;;;;;;;6.75;4.00;;;5.00;65.70;6.00;100431.00;;;;5031598;28;20427;-81
2021/01/26 10:32:04;;;;;;;6.93;4.00;;;5.10;64.80;217.30;159310.00;;;;5050041;28;20513;-81
2021/01/26 10:34:42;;;;;;;5.75;4.03;;;5.10;65.80;6.30;100455.00;;;;5048612;28;20433;-81
2021/01/26 10:37:34;;;;;;;7.18;4.10;;;5.20;65.80;6.00;100443.00;;;;5032864;28;20958;-81
2021/01/26 10:40:15;;;;;;;6.90;3.63;;;5.10;65.50;5.80;100465.00;;;;5028119;28;20473;-81
2021/01/26 10:42:56;;;;;;;5.97;3.65;;;5.00;65.80;5.80;100471.00;;;;5030764;28;20899;-80
2021/01/26 10:45:49;;;;;;;5.43;3.50;;;4.90;65.60;5.70;100476.00;;;;5033593;28;20422;-81
2021/01/26 10:48:29;;;;;;;6.90;4.30;;;4.90;66.40;5.70;100460.00;;;;5030766;28;20452;-81
2021/01/26 10:51:13;;;;;;;13.07;3.95;;;4.80;68.00;5.90;100463.00;;;;5038614;28;20677;-82
2021/01/26 10:53:43;;;;;;;5.80;3.80;;;4.90;68.70;217.30;159248.00;;;;5029844;28;20479;-81
2021/01/26 10:56:13;;;;;;;6.53;3.97;;;5.00;66.60;5.90;100465.00;;;;5032283;28;20446;-81
2021/01/26 10:58:41;;;;;;;7.97;3.90;;;5.00;66.60;5.90;100482.00;;;;5026595;28;20426;-80
2021/01/26 11:01:12;;;;;;;6.07;3.63;;;5.00;65.70;6.10;100471.00;;;;5038338;28;20446;-81
2021/01/26 11:03:39;;;;;;;7.10;4.00;;;5.10;65.80;6.30;100474.00;;;;5034537;28;20488;-81
2021/01/26 11:06:09;;;;;;;5.00;3.60;;;5.20;66.20;6.60;100461.00;;;;5035099;28;20443;-81
2021/01/26 11:08:37;;;;;;;8.30;4.22;;;5.40;65.20;6.50;67696.00;;;;5035289;28;20469;-79
2021/01/26 11:11:05;;;;;;;6.10;3.63;;;5.50;64.90;6.50;100483.00;;;;5035188;28;20427;-80
2021/01/26 11:13:34;;;;;;;6.07;3.88;;;5.40;65.40;6.30;100481.00;;;;5035606;28;20511;-81
2021/01/26 11:16:05;;;;;;;8.20;3.60;;;5.20;65.80;6.00;100481.00;;;;5045143;28;21560;-80
2021/01/26 11:18:32;;;;;;;7.45;4.20;;;5.00;67.40;5.90;100474.00;;;;5034169;28;20427;-79
2021/01/26 11:21:02;;;;;;;8.25;4.40;;;4.90;68.70;5.90;100475.00;;;;5032852;28;20418;-82
2021/01/26 11:23:30;;;;;;;6.55;3.90;;;4.90;68.80;6.10;100492.00;;;;5048979;28;20474;-80
2021/01/26 11:25:59;;;;;;;7.63;4.50;;;5.00;68.70;6.10;100463.00;;;;5033202;28;20426;-80
2021/01/26 11:28:27;;;;;;;7.10;3.83;;;5.10;68.80;6.10;100493.00;;;;5027483;28;20458;-81
2021/01/26 11:30:57;;;;;;;7.70;4.05;;;5.10;68.70;6.20;100477.00;;;;5027487;28;20431;-80
2021/01/26 11:33:25;;;;;;;6.13;3.88;;;5.10;67.80;6.00;100485.00;;;;5037662;28;20426;-82